Time;durP1;ratioP1;P1;durP2;ratioP2;P2;SDS_P1;SDS_P2;PMS_P1;PMS_P2;Temp;Humidity;BMP_temperature;BMP_pressure;BME280_temperature;BME280_humidity;BME280_pressure;Samples;Min_cycle;Max_cycle;Signal;HPM_P1;HPM_P2
2022/03/05 00:00:20;;;;;;;23.33;7.95;;;;;;;;;;4996356;28;20026;-36
2022/03/05 00:02:46;;;;;;;15.30;6.20;;;;;;;;;;4996024;28;20046;-36
2022/03/05 00:05:13;;;;;;;7.20;4.82;;;;;;;;;;4996216;28;20026;-36
2022/03/05 00:07:38;;;;;;;17.13;7.50;;;;;;;;;;4995962;28;20030;-36
2022/03/05 00:10:04;;;;;;;17.13;6.90;;;;;;;;;;4995785;28;20022;-36
2022/03/05 00:12:30;;;;;;;18.80;8.05;;;;;;;;;;4996271;28;20030;-36
2022/03/05 00:14:56;;;;;;;19.50;8.73;;;;;;;;;;4996044;28;20472;-37
2022/03/05 00:17:21;;;;;;;20.05;8.27;;;;;;;;;;4995942;28;20041;-36
2022/03/05 00:19:47;;;;;;;19.33;7.60;;;;;;;;;;4996012;28;20473;-36
2022/03/05 00:22:12;;;;;;;16.02;6.93;;;;;;;;;;4995572;28;20540;-36
2022/03/05 00:24:37;;;;;;;23.23;7.63;;;;;;;;;;4995947;28;20034;-36
2022/03/05 00:27:04;;;;;;;13.93;6.20;;;;;;;;;;4995499;28;20033;-36
2022/03/05 00:29:30;;;;;;;16.90;6.60;;;;;;;;;;4995564;28;20026;-36
2022/03/05 00:31:55;;;;;;;16.58;7.43;;;;;;;;;;4994586;28;20165;-36
2022/03/05 00:34:20;;;;;;;20.92;8.73;;;;;;;;;;4995336;28;20026;-36
2022/03/05 00:36:46;;;;;;;14.07;5.70;;;;;;;;;;4995706;28;20146;-36
2022/03/05 00:39:12;;;;;;;16.45;7.30;;;;;;;;;;4995496;28;20031;-36
2022/03/05 00:41:37;;;;;;;19.33;7.28;;;;;;;;;;4995675;28;20413;-36
2022/03/05 00:44:03;;;;;;;17.73;7.50;;;;;;;;;;4995068;28;20508;-36
2022/03/05 00:46:28;;;;;;;17.13;7.63;;;;;;;;;;4995248;28;20022;-36
2022/03/05 00:48:54;;;;;;;17.55;7.43;;;;;;;;;;4995154;28;20031;-36
2022/03/05 00:51:19;;;;;;;17.50;6.00;;;;;;;;;;4995062;28;20030;-36
2022/03/05 00:53:45;;;;;;;16.42;6.93;;;;;;;;;;4995031;28;20034;-36
2022/03/05 00:56:10;;;;;;;20.70;8.00;;;;;;;;;;4995341;28;20053;-36
2022/03/05 00:58:36;;;;;;;13.55;6.50;;;;;;;;;;4993814;28;20022;-36
2022/03/05 01:01:01;;;;;;;13.95;7.53;;;;;;;;;;4994952;28;20472;-36
2022/03/05 01:03:27;;;;;;;13.25;5.85;;;;;;;;;;4995149;28;20022;-36
2022/03/05 01:05:53;;;;;;;18.92;5.40;;;;;;;;;;4994822;28;20038;-36
2022/03/05 01:08:19;;;;;;;15.27;8.10;;;;;;;;;;4994753;28;20033;-36
2022/03/05 01:10:44;;;;;;;12.15;6.85;;;;;;;;;;4994799;28;20026;-36
2022/03/05 01:13:10;;;;;;;15.25;6.85;;;;;;;;;;4994925;28;20044;-36
2022/03/05 01:15:35;;;;;;;14.35;6.55;;;;;;;;;;4994617;28;20038;-36
2022/03/05 01:18:00;;;;;;;17.35;7.45;;;;;;;;;;4994646;28;20018;-36
2022/03/05 01:20:26;;;;;;;19.98;7.45;;;;;;;;;;4994577;28;20038;-36
2022/03/05 01:22:51;;;;;;;17.13;6.53;;;;;;;;;;4994041;28;20105;-36
2022/03/05 01:25:17;;;;;;;12.77;5.85;;;;;;;;;;4993964;28;20469;-35
2022/03/05 01:27:42;;;;;;;17.58;5.90;;;;;;;;;;4994053;28;20022;-36
2022/03/05 01:30:08;;;;;;;3.63;2.75;;;;;;;;;;4993892;28;20030;-37
2022/03/05 01:32:33;;;;;;;14.60;6.40;;;;;;;;;;4993935;28;20010;-36
2022/03/05 01:34:59;;;;;;;13.85;7.82;;;;;;;;;;4992526;28;20053;-35
2022/03/05 01:37:24;;;;;;;8.98;5.38;;;;;;;;;;4993747;28;20053;-39
2022/03/05 01:39:49;;;;;;;12.88;6.78;;;;;;;;;;4993809;28;20290;-35
2022/03/05 01:42:18;;;;;;;14.20;6.22;;;;;;;;;;4993473;28;20034;-36
2022/03/05 01:44:43;;;;;;;14.48;6.15;;;;;;;;;;4993731;28;20034;-36
2022/03/05 01:47:09;;;;;;;18.55;7.70;;;;;;;;;;4993637;28;20027;-36
2022/03/05 01:49:34;;;;;;;17.55;6.53;;;;;;;;;;4993521;28;20033;-36
2022/03/05 01:52:00;;;;;;;18.65;8.23;;;;;;;;;;5008665;28;20022;-35
2022/03/05 01:54:25;;;;;;;13.75;6.68;;;;;;;;;;4993636;28;20343;-36
2022/03/05 01:56:51;;;;;;;13.52;5.65;;;;;;;;;;4993368;28;20465;-36
2022/03/05 01:59:16;;;;;;;20.17;7.13;;;;;;;;;;4993320;28;20034;-36
2022/03/05 02:01:42;;;;;;;16.13;6.65;;;;;;;;;;4993378;28;20041;-36
2022/03/05 02:04:07;;;;;;;10.90;5.90;;;;;;;;;;4993521;28;20034;-36
2022/03/05 02:06:33;;;;;;;18.13;6.90;;;;;;;;;;4992903;28;20412;-36
2022/03/05 02:08:59;;;;;;;12.48;6.38;;;;;;;;;;4993425;28;20038;-36
2022/03/05 02:11:25;;;;;;;14.68;5.75;;;;;;;;;;4993140;28;20026;-36
2022/03/05 02:13:51;;;;;;;14.80;7.63;;;;;;;;;;4993319;28;20193;-36
2022/03/05 02:16:17;;;;;;;14.45;7.70;;;;;;;;;;4993054;28;20077;-36
2022/03/05 02:18:46;;;;;;;9.73;5.75;;;;;;;;;;4993001;28;20030;-36
2022/03/05 02:21:11;;;;;;;14.75;6.90;;;;;;;;;;4992916;28;20028;-38
2022/03/05 02:23:37;;;;;;;13.82;6.25;;;;;;;;;;4993048;28;20030;-36
2022/03/05 02:26:03;;;;;;;15.50;7.07;;;;;;;;;;4993139;28;20070;-36
2022/03/05 02:28:30;;;;;;;10.25;5.47;;;;;;;;;;4992739;28;20045;-36
2022/03/05 02:30:56;;;;;;;13.98;6.43;;;;;;;;;;5007889;28;20105;-35
2022/03/05 02:33:21;;;;;;;10.45;4.82;;;;;;;;;;4992664;28;20110;-36
2022/03/05 02:35:47;;;;;;;15.05;6.38;;;;;;;;;;4992717;28;20061;-36
2022/03/05 02:38:13;;;;;;;15.75;5.47;;;;;;;;;;4992808;28;20034;-36
2022/03/05 02:40:39;;;;;;;14.88;7.10;;;;;;;;;;4992879;28;20027;-36
2022/03/05 02:43:05;;;;;;;13.73;6.68;;;;;;;;;;4992425;28;20120;-36
2022/03/05 02:45:30;;;;;;;11.27;5.72;;;;;;;;;;4992611;28;20643;-36
2022/03/05 02:47:56;;;;;;;14.43;5.97;;;;;;;;;;4992450;28;20038;-36
2022/03/05 02:50:21;;;;;;;12.70;6.28;;;;;;;;;;4992429;28;20061;-36
2022/03/05 02:52:47;;;;;;;10.35;5.35;;;;;;;;;;4992332;28;20030;-36
2022/03/05 02:55:12;;;;;;;12.43;5.93;;;;;;;;;;4992259;28;20049;-36
2022/03/05 02:57:38;;;;;;;11.00;4.78;;;;;;;;;;4992658;28;20034;-35
2022/03/05 03:00:04;;;;;;;11.32;4.82;;;;;;;;;;4992484;28;20101;-36
2022/03/05 03:02:30;;;;;;;9.20;4.53;;;;;;;;;;4992236;28;20034;-36
2022/03/05 03:04:55;;;;;;;12.23;5.78;;;;;;;;;;4992211;28;20033;-36
2022/03/05 03:07:20;;;;;;;13.35;5.20;;;;;;;;;;4992122;28;20034;-36
2022/03/05 03:09:46;;;;;;;11.45;5.03;;;;;;;;;;4991216;28;20113;-36
2022/03/05 03:12:11;;;;;;;8.60;4.25;;;;;;;;;;4992028;28;20389;-36
2022/03/05 03:14:37;;;;;;;15.70;6.47;;;;;;;;;;4992039;28;20030;-36
2022/03/05 03:17:02;;;;;;;12.68;5.78;;;;;;;;;;4992127;28;20038;-36
2022/03/05 03:19:28;;;;;;;11.50;5.72;;;;;;;;;;4991956;28;20030;-36
2022/03/05 03:21:53;;;;;;;10.80;5.20;;;;;;;;;;4992261;28;20033;-36
2022/03/05 03:24:19;;;;;;;9.95;5.20;;;;;;;;;;4991985;28;20022;-37
2022/03/05 03:26:45;;;;;;;16.10;5.57;;;;;;;;;;4992117;28;20117;-35
2022/03/05 03:29:12;;;;;;;17.00;5.05;;;;;;;;;;4991879;28;20042;-36
2022/03/05 03:31:37;;;;;;;11.98;5.50;;;;;;;;;;4992051;28;20030;-36
2022/03/05 03:34:03;;;;;;;10.05;4.95;;;;;;;;;;4991909;28;20031;-36
2022/03/05 03:36:28;;;;;;;12.75;5.80;;;;;;;;;;4991817;28;20041;-36
2022/03/05 03:38:53;;;;;;;12.57;5.32;;;;;;;;;;4991954;28;20397;-36
2022/03/05 03:41:19;;;;;;;13.68;5.00;;;;;;;;;;4992158;28;20041;-36
2022/03/05 03:43:44;;;;;;;10.05;4.90;;;;;;;;;;4991744;28;20489;-36
2022/03/05 03:46:12;;;;;;;8.15;4.75;;;;;;;;;;4991761;28;20034;-36
2022/03/05 03:48:37;;;;;;;11.55;4.45;;;;;;;;;;4992070;28;20038;-36
2022/03/05 03:51:03;;;;;;;9.43;4.15;;;;;;;;;;4991858;28;20027;-36
2022/03/05 03:53:28;;;;;;;9.02;4.65;;;;;;;;;;4991772;28;20469;-36
2022/03/05 03:55:54;;;;;;;7.97;3.83;;;;;;;;;;5007087;28;20117;-36
2022/03/05 03:58:19;;;;;;;7.70;4.25;;;;;;;;;;4991660;28;20496;-36
2022/03/05 04:00:45;;;;;;;10.15;5.10;;;;;;;;;;4992088;28;20068;-36
2022/03/05 04:03:10;;;;;;;7.70;4.05;;;;;;;;;;5006999;28;20022;-36
2022/03/05 04:05:36;;;;;;;7.88;3.63;;;;;;;;;;4991652;28;20034;-36
2022/03/05 04:10:45;;;;;;;9.40;6.18;;;;;;;;;;4991604;28;20073;-36
2022/03/05 04:13:10;;;;;;;12.65;4.70;;;;;;;;;;4991471;28;20058;-36
2022/03/05 04:15:36;;;;;;;7.90;4.13;;;;;;;;;;4991619;28;20053;-36
2022/03/05 04:18:02;;;;;;;8.30;4.25;;;;;;;;;;4991760;28;20037;-36
2022/03/05 04:20:27;;;;;;;10.75;4.95;;;;;;;;;;4991462;28;20040;-36
2022/03/05 04:22:53;;;;;;;10.77;3.85;;;;;;;;;;4990323;28;20541;-36
2022/03/05 04:25:18;;;;;;;11.60;4.30;;;;;;;;;;4991409;28;20417;-36
2022/03/05 04:27:44;;;;;;;12.60;4.65;;;;;;;;;;4991772;28;20023;-36
2022/03/05 04:30:09;;;;;;;7.47;4.47;;;;;;;;;;4995085;28;20032;-36
2022/03/05 04:32:35;;;;;;;15.10;4.75;;;;;;;;;;4994989;28;20477;-36
2022/03/05 04:35:01;;;;;;;8.13;4.18;;;;;;;;;;4995136;28;20046;-36
2022/03/05 04:37:26;;;;;;;13.23;5.22;;;;;;;;;;4994857;28;20035;-36
2022/03/05 04:39:51;;;;;;;9.48;4.63;;;;;;;;;;4994823;28;20034;-36
2022/03/05 04:42:17;;;;;;;9.40;4.45;;;;;;;;;;4993363;28;20060;-36
2022/03/05 04:44:42;;;;;;;7.93;3.92;;;;;;;;;;4995111;28;20117;-36
2022/03/05 04:47:08;;;;;;;8.05;3.92;;;;;;;;;;4994735;28;20038;-36
2022/03/05 04:49:33;;;;;;;8.63;3.50;;;;;;;;;;4994949;28;20041;-36
2022/03/05 04:51:58;;;;;;;9.93;4.28;;;;;;;;;;4994745;28;20026;-36
2022/03/05 04:54:25;;;;;;;14.48;4.75;;;;;;;;;;4994763;28;20118;-36
2022/03/05 04:56:51;;;;;;;13.80;4.47;;;;;;;;;;4994879;28;20030;-36
2022/03/05 04:59:16;;;;;;;13.25;4.88;;;;;;;;;;5009626;28;20044;-36
2022/03/05 05:01:42;;;;;;;12.70;4.70;;;;;;;;;;4994467;28;20023;-36
2022/03/05 05:04:07;;;;;;;9.90;4.38;;;;;;;;;;4994566;28;20453;-36
2022/03/05 05:06:33;;;;;;;7.72;3.65;;;;;;;;;;4994713;28;20354;-36
2022/03/05 05:08:58;;;;;;;5.93;3.20;;;;;;;;;;4994267;28;20033;-36
2022/03/05 05:11:24;;;;;;;8.73;4.00;;;;;;;;;;4994571;28;20030;-36
2022/03/05 05:13:49;;;;;;;10.93;5.43;;;;;;;;;;4994351;28;20035;-36
2022/03/05 05:16:14;;;;;;;11.57;5.35;;;;;;;;;;4994080;28;20030;-36
2022/03/05 05:19:24;;;;;;;13.27;5.45;;;;;;;;;;4994511;28;20078;-36
2022/03/05 05:21:25;;;;;;;9.73;4.10;;;;;;;;;;4994061;28;20038;-36
2022/03/05 05:23:51;;;;;;;8.45;4.50;;;;;;;;;;4994083;28;20033;-37
2022/03/05 05:26:16;;;;;;;11.68;4.47;;;;;;;;;;4994278;28;20445;-36
2022/03/05 05:28:41;;;;;;;9.45;3.63;;;;;;;;;;4994314;28;20541;-36
2022/03/05 05:31:07;;;;;;;14.63;4.57;;;;;;;;;;4994010;28;20604;-36
2022/03/05 05:33:32;;;;;;;10.95;3.47;;;;;;;;;;4994092;28;20022;-36
2022/03/05 05:35:58;;;;;;;12.20;4.85;;;;;;;;;;4993829;28;20100;-36
2022/03/05 05:38:25;;;;;;;12.63;4.88;;;;;;;;;;4993625;28;20568;-37
2022/03/05 05:40:50;;;;;;;15.05;5.20;;;;;;;;;;4992880;28;20066;-36
2022/03/05 05:43:16;;;;;;;11.18;4.75;;;;;;;;;;4993666;28;20396;-36
2022/03/05 05:45:41;;;;;;;8.60;4.10;;;;;;;;;;4993722;28;20032;-36
2022/03/05 05:48:07;;;;;;;15.82;5.13;;;;;;;;;;4993661;28;20121;-36
2022/03/05 05:50:32;;;;;;;11.90;4.68;;;;;;;;;;4993834;28;20117;-36
2022/03/05 05:52:58;;;;;;;7.53;3.63;;;;;;;;;;4993521;28;20029;-35
2022/03/05 05:55:24;;;;;;;9.35;4.07;;;;;;;;;;4993634;28;20133;-36
2022/03/05 05:57:50;;;;;;;13.98;4.35;;;;;;;;;;4993419;28;20109;-36
2022/03/05 06:00:16;;;;;;;8.57;4.30;;;;;;;;;;4993459;28;20030;-36
2022/03/05 06:02:42;;;;;;;6.93;3.67;;;;;;;;;;4993211;28;20022;-37
2022/03/05 06:05:08;;;;;;;12.25;4.63;;;;;;;;;;4993268;28;20026;-35
2022/03/05 06:07:35;;;;;;;11.65;4.30;;;;;;;;;;4993532;28;20136;-36
2022/03/05 06:10:00;;;;;;;9.18;4.55;;;;;;;;;;4993235;28;20125;-36
2022/03/05 06:12:26;;;;;;;9.68;3.42;;;;;;;;;;4993408;28;20034;-36
2022/03/05 06:14:51;;;;;;;10.13;4.72;;;;;;;;;;4993001;28;20097;-36
2022/03/05 06:17:17;;;;;;;14.05;3.92;;;;;;;;;;4993325;28;20032;-36
2022/03/05 06:19:44;;;;;;;12.73;5.18;;;;;;;;;;4992969;28;20038;-36
2022/03/05 06:22:09;;;;;;;11.80;4.97;;;;;;;;;;4991666;28;20019;-36
2022/03/05 06:24:35;;;;;;;9.63;4.28;;;;;;;;;;4993257;28;20038;-36
2022/03/05 06:27:01;;;;;;;7.78;4.03;;;;;;;;;;4991963;28;20034;-35
2022/03/05 06:29:26;;;;;;;8.55;4.97;;;;;;;;;;4992772;28;20500;-36
2022/03/05 06:31:54;;;;;;;8.30;3.85;;;;;;;;;;4993144;28;20057;-36
2022/03/05 06:34:19;;;;;;;9.65;5.20;;;;;;;;;;4992545;28;20036;-36
2022/03/05 06:36:45;;;;;;;10.52;5.70;;;;;;;;;;4992761;28;20105;-36
2022/03/05 06:39:10;;;;;;;9.50;3.72;;;;;;;;;;4992581;28;20042;-37
2022/03/05 06:41:36;;;;;;;9.55;4.95;;;;;;;;;;4992604;28;20033;-36
2022/03/05 06:44:01;;;;;;;7.82;3.45;;;;;;;;;;4992467;28;20057;-35
2022/03/05 06:46:28;;;;;;;7.32;2.97;;;;;;;;;;4992560;28;20049;-36
2022/03/05 06:48:53;;;;;;;8.98;4.55;;;;;;;;;;4992760;28;20038;-36
2022/03/05 06:51:19;;;;;;;7.60;4.78;;;;;;;;;;4992420;28;20399;-36
2022/03/05 06:53:45;;;;;;;7.22;3.22;;;;;;;;;;4991275;28;20034;-36
2022/03/05 06:56:11;;;;;;;8.15;3.75;;;;;;;;;;4992244;28;20042;-36
2022/03/05 06:58:36;;;;;;;6.18;3.00;;;;;;;;;;4992371;28;20098;-36
2022/03/05 07:01:02;;;;;;;7.22;3.40;;;;;;;;;;4992659;28;20073;-36
2022/03/05 07:03:27;;;;;;;4.78;3.15;;;;;;;;;;4992262;28;20037;-36
2022/03/05 07:05:53;;;;;;;11.35;3.90;;;;;;;;;;4992239;28;20069;-36
2022/03/05 07:08:18;;;;;;;4.55;3.28;;;;;;;;;;4992366;28;20449;-37
2022/03/05 07:10:44;;;;;;;6.95;3.20;;;;;;;;;;4992184;28;20465;-40
2022/03/05 07:13:09;;;;;;;4.38;2.80;;;;;;;;;;4992102;28;20044;-36
2022/03/05 07:15:35;;;;;;;6.53;3.42;;;;;;;;;;4992088;28;20038;-36
2022/03/05 07:18:00;;;;;;;8.45;3.40;;;;;;;;;;4992054;28;20077;-36
2022/03/05 07:20:25;;;;;;;5.38;3.80;;;;;;;;;;4992032;28;20061;-36
2022/03/05 07:22:51;;;;;;;5.82;2.78;;;;;;;;;;4992093;28;20074;-36
2022/03/05 07:25:16;;;;;;;9.52;3.92;;;;;;;;;;4991936;28;20479;-36
2022/03/05 07:27:42;;;;;;;9.75;3.63;;;;;;;;;;4992021;28;20035;-36
2022/03/05 07:30:08;;;;;;;4.85;3.30;;;;;;;;;;4991945;28;20030;-36
2022/03/05 07:32:34;;;;;;;7.63;3.42;;;;;;;;;;4991882;28;20041;-36
2022/03/05 07:34:59;;;;;;;6.40;3.38;;;;;;;;;;4991980;28;20026;-36
2022/03/05 07:37:24;;;;;;;6.97;3.13;;;;;;;;;;4991801;28;20469;-36
2022/03/05 07:39:50;;;;;;;5.25;2.13;;;;;;;;;;4991865;28;20022;-36
2022/03/05 07:42:16;;;;;;;2.63;1.95;;;;;;;;;;4991659;28;20117;-36
2022/03/05 07:44:41;;;;;;;7.97;3.88;;;;;;;;;;4992160;28;20577;-36
2022/03/05 07:47:07;;;;;;;11.13;4.60;;;;;;;;;;4992215;28;20060;-36
2022/03/05 07:49:32;;;;;;;2.40;1.40;;;;;;;;;;4992026;28;20030;-35
2022/03/05 07:51:58;;;;;;;6.72;3.00;;;;;;;;;;4991769;28;20031;-36
2022/03/05 07:54:24;;;;;;;7.32;3.10;;;;;;;;;;4991636;28;20037;-36
2022/03/05 07:56:50;;;;;;;8.30;3.38;;;;;;;;;;4991790;28;20038;-36
2022/03/05 07:59:15;;;;;;;2.47;1.65;;;;;;;;;;4991633;28;20037;-36
2022/03/05 08:01:41;;;;;;;6.45;2.55;;;;;;;;;;4991747;28;20042;-36
2022/03/05 08:04:06;;;;;;;7.97;3.30;;;;;;;;;;4993746;28;20014;-36
2022/03/05 08:06:32;;;;;;;5.80;2.60;;;;;;;;;;4995502;28;20093;-36
2022/03/05 08:08:59;;;;;;;3.70;2.22;;;;;;;;;;5010505;28;20032;-36
2022/03/05 08:11:24;;;;;;;4.10;3.10;;;;;;;;;;5010456;28;20034;-36
2022/03/05 08:13:50;;;;;;;7.07;3.30;;;;;;;;;;4995393;28;20100;-36
2022/03/05 08:16:15;;;;;;;3.78;2.75;;;;;;;;;;4995229;28;20053;-36
2022/03/05 08:18:41;;;;;;;7.82;3.55;;;;;;;;;;4995317;28;20033;-36
2022/03/05 08:21:07;;;;;;;8.05;3.17;;;;;;;;;;4995526;28;20038;-36
2022/03/05 08:23:33;;;;;;;4.70;2.08;;;;;;;;;;4995446;28;20424;-35
2022/03/05 08:25:59;;;;;;;9.15;2.92;;;;;;;;;;4995572;28;20026;-37
2022/03/05 08:28:24;;;;;;;4.75;2.45;;;;;;;;;;4994998;28;20011;-36
2022/03/05 08:30:49;;;;;;;5.95;3.70;;;;;;;;;;4995449;28;20396;-36
2022/03/05 08:33:17;;;;;;;3.50;2.58;;;;;;;;;;4995072;28;20026;-36
2022/03/05 08:35:43;;;;;;;5.45;2.17;;;;;;;;;;4994843;28;20484;-36
2022/03/05 08:38:08;;;;;;;7.22;3.67;;;;;;;;;;4994879;28;20072;-36
2022/03/05 08:40:34;;;;;;;7.10;2.70;;;;;;;;;;4995104;28;20084;-36
2022/03/05 08:43:00;;;;;;;6.72;2.58;;;;;;;;;;4994906;28;20042;-36
2022/03/05 08:45:26;;;;;;;4.40;2.67;;;;;;;;;;4995089;28;20473;-36
2022/03/05 08:47:51;;;;;;;3.00;1.95;;;;;;;;;;4995049;28;20037;-36
2022/03/05 08:50:17;;;;;;;8.55;3.00;;;;;;;;;;4994908;28;20504;-36
2022/03/05 08:52:42;;;;;;;5.22;2.70;;;;;;;;;;4994717;28;20026;-36
2022/03/05 08:55:09;;;;;;;8.07;3.50;;;;;;;;;;4994888;28;20042;-36
2022/03/05 08:57:34;;;;;;;6.85;3.20;;;;;;;;;;4993210;28;20027;-36
2022/03/05 09:00:00;;;;;;;6.00;2.47;;;;;;;;;;4994800;28;20037;-36
2022/03/05 09:02:26;;;;;;;4.70;2.75;;;;;;;;;;4994495;28;20466;-36
2022/03/05 09:04:53;;;;;;;5.57;2.78;;;;;;;;;;4994435;28;20078;-36
2022/03/05 09:07:18;;;;;;;6.15;3.08;;;;;;;;;;4994643;28;20018;-36
2022/03/05 09:09:44;;;;;;;4.18;2.53;;;;;;;;;;4994612;28;20034;-36
2022/03/05 09:12:10;;;;;;;6.30;2.20;;;;;;;;;;4994410;28;20018;-36
2022/03/05 09:14:35;;;;;;;2.83;1.90;;;;;;;;;;4994134;28;20366;-36
2022/03/05 09:17:01;;;;;;;2.30;1.83;;;;;;;;;;4994839;28;20105;-36
2022/03/05 09:19:26;;;;;;;7.15;2.70;;;;;;;;;;4994127;28;20054;-36
2022/03/05 09:21:52;;;;;;;6.93;3.80;;;;;;;;;;4994493;28;20026;-36
2022/03/05 09:24:17;;;;;;;5.88;2.95;;;;;;;;;;4993968;28;20057;-36
2022/03/05 09:26:43;;;;;;;10.57;2.78;;;;;;;;;;4994382;28;20118;-36
2022/03/05 09:29:08;;;;;;;7.38;2.92;;;;;;;;;;4994213;28;20034;-35
2022/03/05 09:31:34;;;;;;;5.65;2.05;;;;;;;;;;4993819;28;20431;-36
2022/03/05 09:34:00;;;;;;;6.53;2.53;;;;;;;;;;4993948;28;20023;-36
2022/03/05 09:36:25;;;;;;;6.53;2.80;;;;;;;;;;4993915;28;20064;-36
2022/03/05 09:38:51;;;;;;;2.83;1.75;;;;;;;;;;4993814;28;20366;-36
2022/03/05 09:41:17;;;;;;;6.32;2.50;;;;;;;;;;4993782;28;20148;-36
2022/03/05 09:43:43;;;;;;;6.25;2.92;;;;;;;;;;4993557;28;20133;-36
2022/03/05 09:46:09;;;;;;;6.80;3.45;;;;;;;;;;4993692;28;20465;-36
2022/03/05 09:48:37;;;;;;;6.55;2.80;;;;;;;;;;4993523;28;20036;-35
2022/03/05 09:51:02;;;;;;;3.88;2.38;;;;;;;;;;4993646;28;20029;-36
2022/03/05 09:53:29;;;;;;;4.93;2.90;;;;;;;;;;4993466;28;20030;-36
2022/03/05 09:55:55;;;;;;;6.95;2.58;;;;;;;;;;4993206;28;20050;-36
2022/03/05 09:58:20;;;;;;;7.75;2.60;;;;;;;;;;5008532;28;20069;-35
2022/03/05 10:00:46;;;;;;;4.00;2.30;;;;;;;;;;4993413;28;20122;-35
2022/03/05 10:03:13;;;;;;;5.32;2.63;;;;;;;;;;4993581;28;20034;-36
2022/03/05 10:05:38;;;;;;;5.72;2.42;;;;;;;;;;4993728;28;20107;-36
2022/03/05 10:08:08;;;;;;;3.55;1.67;;;;;;;;;;4993126;28;20118;-36
2022/03/05 10:10:49;;;;;;;7.82;2.03;;;;;;;;;;4993206;28;20117;-36
2022/03/05 10:13:19;;;;;;;7.30;3.28;;;;;;;;;;4993131;28;20034;-36
2022/03/05 10:15:45;;;;;;;7.05;2.45;;;;;;;;;;4993027;28;20039;-36
2022/03/05 10:18:11;;;;;;;2.95;2.08;;;;;;;;;;4993040;28;20057;-36
2022/03/05 10:20:42;;;;;;;5.47;2.22;;;;;;;;;;4993027;28;20461;-36
2022/03/05 10:23:09;;;;;;;5.07;2.50;;;;;;;;;;4992993;28;20034;-36
2022/03/05 10:25:34;;;;;;;8.30;3.58;;;;;;;;;;4992764;28;20437;-36
2022/03/05 10:28:01;;;;;;;7.95;3.25;;;;;;;;;;4992576;28;20097;-36
2022/03/05 10:30:49;;;;;;;7.35;2.70;;;;;;;;;;4993034;28;20045;-36
2022/03/05 10:33:30;;;;;;;3.95;2.08;;;;;;;;;;4987265;28;20045;-35
2022/03/05 10:35:56;;;;;;;4.82;2.50;;;;;;;;;;4992917;28;20058;-36
2022/03/05 10:38:22;;;;;;;10.50;2.80;;;;;;;;;;4992868;28;20358;-36
2022/03/05 10:40:57;;;;;;;5.40;2.00;;;;;;;;;;4992695;28;20125;-35
2022/03/05 10:43:23;;;;;;;5.40;2.63;;;;;;;;;;4991110;28;20094;-39
2022/03/05 10:45:50;;;;;;;5.88;2.67;;;;;;;;;;4992896;28;20030;-36
2022/03/05 10:48:26;;;;;;;5.45;2.10;;;;;;;;;;4992499;28;20121;-36
2022/03/05 10:51:13;;;;;;;5.28;2.50;;;;;;;;;;4992494;28;20100;-36
2022/03/05 10:53:46;;;;;;;8.02;2.53;;;;;;;;;;4992831;28;20385;-36
2022/03/05 10:56:25;;;;;;;4.60;2.47;;;;;;;;;;4992508;28;20058;-35
2022/03/05 10:59:06;;;;;;;6.40;2.75;;;;;;;;;;4992349;28;20093;-36
2022/03/05 11:01:33;;;;;;;7.78;3.38;;;;;;;;;;4992614;28;20389;-36
2022/03/05 11:03:59;;;;;;;9.73;2.58;;;;;;;;;;5007357;28;20495;-37
2022/03/05 11:06:25;;;;;;;11.77;2.13;;;;;;;;;;4992197;28;20061;-36
2022/03/05 11:08:51;;;;;;;7.82;3.13;;;;;;;;;;4992492;28;20222;-35
2022/03/05 11:11:17;;;;;;;10.95;2.53;;;;;;;;;;4992072;28;20396;-36
2022/03/05 11:13:43;;;;;;;3.90;1.80;;;;;;;;;;4992514;28;20014;-36
2022/03/05 11:16:11;;;;;;;4.10;2.40;;;;;;;;;;4992139;28;20081;-36
2022/03/05 11:18:37;;;;;;;5.65;2.10;;;;;;;;;;4992344;28;20038;-36
2022/03/05 11:21:03;;;;;;;9.90;2.95;;;;;;;;;;4992096;28;20084;-35
2022/03/05 11:23:29;;;;;;;2.53;2.13;;;;;;;;;;4992350;28;20018;-36
2022/03/05 11:25:55;;;;;;;4.85;3.17;;;;;;;;;;4992021;28;20105;-36
2022/03/05 11:28:25;;;;;;;3.65;2.30;;;;;;;;;;4991959;28;20125;-36
2022/03/05 11:30:53;;;;;;;7.57;3.25;;;;;;;;;;4992064;28;20063;-36
2022/03/05 11:33:30;;;;;;;3.53;2.05;;;;;;;;;;4991945;28;20022;-36
2022/03/05 11:36:05;;;;;;;4.53;2.08;;;;;;;;;;4992215;28;20065;-36
2022/03/05 11:38:36;;;;;;;2.45;1.92;;;;;;;;;;4993237;28;20034;-36
2022/03/05 11:41:25;;;;;;;5.82;2.33;;;;;;;;;;4995956;28;20448;-36
2022/03/05 11:43:50;;;;;;;7.10;2.10;;;;;;;;;;4990421;28;20058;-36
2022/03/05 11:46:23;;;;;;;5.85;2.42;;;;;;;;;;4996098;28;20034;-36
2022/03/05 11:49:07;;;;;;;3.90;2.13;;;;;;;;;;4996164;28;20035;-35
2022/03/05 11:51:33;;;;;;;3.90;2.33;;;;;;;;;;4995838;28;20040;-36
2022/03/05 11:54:25;;;;;;;3.67;1.83;;;;;;;;;;4995723;28;20022;-36
2022/03/05 11:57:11;;;;;;;4.40;2.28;;;;;;;;;;4993819;28;20519;-36
2022/03/05 11:59:37;;;;;;;5.88;3.05;;;;;;;;;;4995889;28;20113;-36
2022/03/05 12:02:03;;;;;;;6.78;2.38;;;;;;;;;;4995638;28;20026;-36
2022/03/05 12:04:29;;;;;;;7.53;2.50;;;;;;;;;;4995658;28;20481;-36
2022/03/05 12:06:56;;;;;;;4.57;2.47;;;;;;;;;;4995815;28;20105;-36
2022/03/05 12:09:35;;;;;;;4.13;2.40;;;;;;;;;;4995387;28;20030;-37
2022/03/05 12:12:04;;;;;;;4.32;1.83;;;;;;;;;;4995774;28;20035;-36
2022/03/05 12:14:49;;;;;;;5.88;2.65;;;;;;;;;;4995371;28;20030;-36
2022/03/05 12:17:19;;;;;;;5.00;2.58;;;;;;;;;;5010422;28;20038;-36
2022/03/05 12:19:45;;;;;;;4.07;2.13;;;;;;;;;;4995681;28;20057;-36
2022/03/05 12:22:14;;;;;;;6.35;2.53;;;;;;;;;;4995568;28;20022;-36
2022/03/05 12:24:39;;;;;;;5.78;2.58;;;;;;;;;;4995237;28;20058;-36
2022/03/05 12:27:09;;;;;;;3.63;2.30;;;;;;;;;;4995164;28;20046;-36
2022/03/05 12:29:35;;;;;;;7.93;2.78;;;;;;;;;;4995038;28;20389;-36
2022/03/05 12:32:01;;;;;;;3.60;1.83;;;;;;;;;;4995143;28;20027;-36
2022/03/05 12:34:27;;;;;;;4.72;1.70;;;;;;;;;;4993730;28;20034;-36
2022/03/05 12:36:53;;;;;;;6.72;2.63;;;;;;;;;;4995187;28;20046;-36
2022/03/05 12:39:23;;;;;;;3.83;2.35;;;;;;;;;;4994959;28;20542;-36
2022/03/05 12:41:51;;;;;;;4.20;2.78;;;;;;;;;;4994710;28;20030;-36
2022/03/05 12:44:17;;;;;;;7.80;3.55;;;;;;;;;;4994805;28;20070;-36
2022/03/05 12:46:43;;;;;;;6.22;2.45;;;;;;;;;;4994856;28;20417;-36
2022/03/05 12:49:09;;;;;;;4.40;2.50;;;;;;;;;;4994606;28;20018;-36
2022/03/05 12:51:35;;;;;;;6.45;3.33;;;;;;;;;;4994625;28;20030;-36
2022/03/05 12:54:03;;;;;;;7.82;2.92;;;;;;;;;;4995048;28;20062;-36
2022/03/05 12:56:28;;;;;;;7.30;3.17;;;;;;;;;;4994796;28;20044;-36
2022/03/05 12:58:58;;;;;;;3.55;1.92;;;;;;;;;;4994828;28;20611;-36
2022/03/05 13:01:26;;;;;;;4.82;3.00;;;;;;;;;;5009677;28;20125;-36
2022/03/05 13:03:53;;;;;;;6.53;3.47;;;;;;;;;;4994561;28;20027;-36
2022/03/05 13:06:19;;;;;;;4.97;3.10;;;;;;;;;;4994708;28;20038;-36
2022/03/05 13:08:45;;;;;;;7.20;3.17;;;;;;;;;;4994425;28;20476;-37
2022/03/05 13:11:11;;;;;;;5.72;2.20;;;;;;;;;;4994696;28;20073;-37
2022/03/05 13:13:38;;;;;;;5.40;3.25;;;;;;;;;;4994271;28;20558;-37
2022/03/05 13:16:08;;;;;;;7.72;3.30;;;;;;;;;;4994301;28;20077;-36
2022/03/05 13:18:35;;;;;;;9.38;3.30;;;;;;;;;;4994520;28;20040;-36
2022/03/05 13:21:03;;;;;;;5.32;2.53;;;;;;;;;;4994192;28;20041;-37
2022/03/05 13:23:31;;;;;;;6.57;4.10;;;;;;;;;;4994155;28;20054;-37
2022/03/05 13:25:56;;;;;;;6.03;3.53;;;;;;;;;;4994167;28;20054;-37
2022/03/05 13:28:24;;;;;;;6.75;3.40;;;;;;;;;;4993951;28;20050;-37
2022/03/05 13:30:52;;;;;;;6.82;3.90;;;;;;;;;;4994333;28;20465;-36
2022/03/05 13:33:41;;;;;;;7.65;3.17;;;;;;;;;;4993868;28;20548;-37
2022/03/05 13:36:23;;;;;;;6.53;3.20;;;;;;;;;;4993848;28;20045;-36
2022/03/05 13:38:53;;;;;;;4.85;3.05;;;;;;;;;;4993918;28;20101;-37
2022/03/05 13:41:23;;;;;;;6.93;3.35;;;;;;;;;;4993767;28;20038;-36
2022/03/05 13:43:49;;;;;;;6.75;3.60;;;;;;;;;;4993649;28;20050;-37
2022/03/05 13:46:16;;;;;;;4.32;1.80;;;;;;;;;;4993727;28;20418;-36
2022/03/05 13:48:49;;;;;;;4.68;2.95;;;;;;;;;;4993661;28;20045;-37
2022/03/05 13:51:16;;;;;;;3.67;2.03;;;;;;;;;;4994182;28;20397;-36
2022/03/05 13:53:43;;;;;;;5.53;2.92;;;;;;;;;;4993642;28;20362;-37
2022/03/05 13:56:09;;;;;;;6.00;2.72;;;;;;;;;;4993556;28;20474;-37
2022/03/05 13:58:36;;;;;;;2.67;1.98;;;;;;;;;;4993536;28;20027;-37
2022/03/05 14:01:01;;;;;;;4.60;1.45;;;;;;;;;;4992641;28;20030;-37
2022/03/05 14:03:27;;;;;;;3.95;2.25;;;;;;;;;;4993335;28;20022;-37
2022/03/05 14:05:52;;;;;;;5.32;2.53;;;;;;;;;;4993450;28;20114;-37
2022/03/05 14:08:18;;;;;;;6.57;3.03;;;;;;;;;;4993222;28;20025;-37
2022/03/05 14:10:47;;;;;;;4.00;1.88;;;;;;;;;;4993280;28;20030;-37
2022/03/05 14:13:24;;;;;;;6.18;2.08;;;;;;;;;;4993341;28;20394;-36
2022/03/05 14:15:49;;;;;;;5.97;3.47;;;;;;;;;;4993297;28;20042;-36
2022/03/05 14:18:15;;;;;;;6.22;2.85;;;;;;;;;;4993300;28;20033;-36
2022/03/05 14:20:42;;;;;;;5.25;3.00;;;;;;;;;;4993033;28;20049;-37
2022/03/05 14:23:35;;;;;;;5.45;2.28;;;;;;;;;;4993345;28;20026;-36
2022/03/05 14:26:06;;;;;;;2.30;1.88;;;;;;;;;;4993106;28;20038;-37
2022/03/05 14:28:33;;;;;;;4.15;2.40;;;;;;;;;;4993091;28;20030;-36
2022/03/05 14:30:58;;;;;;;4.05;1.70;;;;;;;;;;4993239;28;20262;-36
2022/03/05 14:33:25;;;;;;;3.65;2.28;;;;;;;;;;4993126;28;20034;-36
2022/03/05 14:35:51;;;;;;;1.92;1.67;;;;;;;;;;4993141;28;20042;-36
2022/03/05 14:38:17;;;;;;;4.72;2.25;;;;;;;;;;4992669;28;20030;-36